createdAt,value
2023-05-05T03:11:52.053Z,52.45
2023-05-05T03:15:55.820Z,52.00
2023-05-05T03:19:59.222Z,52.30
2023-05-05T03:24:13.384Z,52.50
2023-05-05T03:32:21.068Z,52.60
2023-05-05T03:36:24.044Z,52.80
2023-05-05T03:40:36.204Z,52.70
2023-05-05T03:44:45.090Z,52.00
2023-05-05T03:48:48.525Z,51.70
2023-05-05T03:52:51.548Z,52.40
2023-05-05T03:56:54.824Z,51.20
2023-05-05T04:00:59.202Z,51.80
2023-05-05T04:05:02.407Z,52.30
2023-05-05T04:09:05.769Z,51.90
2023-05-05T04:13:11.000Z,51.80
2023-05-05T04:17:15.509Z,52.03
2023-05-05T04:21:18.527Z,52.13
2023-05-05T04:25:21.675Z,51.95
2023-05-05T04:29:25.190Z,51.40
2023-05-05T04:33:30.841Z,51.63
2023-05-05T04:37:33.991Z,52.00
2023-05-05T04:41:37.132Z,51.65
2023-05-05T04:45:40.309Z,52.40
2023-05-05T04:49:46.888Z,51.60
2023-05-05T04:53:49.895Z,52.00
2023-05-05T04:57:53.021Z,52.00
2023-05-05T05:01:56.086Z,51.80
2023-05-05T05:06:02.561Z,52.30
2023-05-05T05:10:06.379Z,52.23
2023-05-05T05:14:09.438Z,51.00
2023-05-05T05:18:12.499Z,52.20
2023-05-05T05:22:16.858Z,51.90
2023-05-05T05:26:19.921Z,52.20
2023-05-05T05:30:23.020Z,52.10
2023-05-05T05:34:26.062Z,51.97
2023-05-05T05:38:31.440Z,52.50
2023-05-05T05:42:34.502Z,51.80
2023-05-05T05:46:37.891Z,51.40
2023-05-05T05:50:40.918Z,52.17
2023-05-05T05:54:45.282Z,52.75
2023-05-05T05:58:48.783Z,51.20
2023-05-05T06:02:52.398Z,51.90
2023-05-05T06:06:55.389Z,52.40
2023-05-05T06:11:00.658Z,52.57
2023-05-05T06:15:05.007Z,52.10
2023-05-05T06:19:09.754Z,52.23
2023-05-05T06:23:12.778Z,52.42
2023-05-05T06:27:17.127Z,52.10
2023-05-05T06:31:20.126Z,52.10
2023-05-05T06:35:23.191Z,51.38
2023-05-05T06:39:26.489Z,52.50
2023-05-05T06:43:31.240Z,51.37
2023-05-05T06:47:34.250Z,52.20
2023-05-05T06:51:37.410Z,51.60
2023-05-05T06:55:44.105Z,52.28
2023-05-05T06:59:48.469Z,52.45
2023-05-05T07:03:52.369Z,52.53
2023-05-05T07:07:56.269Z,50.70
2023-05-05T07:11:59.261Z,51.50
2023-05-05T07:16:03.842Z,51.90
2023-05-05T07:20:08.152Z,52.05
2023-05-05T07:24:11.257Z,51.90
2023-05-05T07:28:14.329Z,51.80
2023-05-05T07:32:18.738Z,52.63
2023-05-05T07:36:22.321Z,52.90
2023-05-05T07:40:26.001Z,52.40
2023-05-05T07:44:29.197Z,52.90
2023-05-05T07:48:33.579Z,52.90
2023-05-05T07:52:46.480Z,52.95
2023-05-05T07:56:54.634Z,51.70
2023-05-05T08:00:57.633Z,53.20
2023-05-05T08:05:01.961Z,52.70
2023-05-05T08:09:05.324Z,52.00
2023-05-05T08:13:08.499Z,52.37
2023-05-05T08:17:12.169Z,52.50
2023-05-05T08:21:16.790Z,52.10
2023-05-05T08:25:19.830Z,52.20
2023-05-05T08:29:22.801Z,51.80
2023-05-05T08:33:25.895Z,52.43
2023-05-05T08:37:30.477Z,53.13
2023-05-05T08:41:34.643Z,52.53
2023-05-05T08:45:47.598Z,52.90
2023-05-05T08:49:52.781Z,53.40
2023-05-05T08:54:05.342Z,53.50
2023-05-05T08:58:09.582Z,53.00
2023-05-05T09:02:14.541Z,52.90
2023-05-05T09:06:17.560Z,53.83
2023-05-05T09:10:22.126Z,53.70
2023-05-05T09:14:25.138Z,53.15
2023-05-05T09:18:28.236Z,53.10
2023-05-05T09:22:36.108Z,53.65
2023-05-05T09:26:43.813Z,53.50
2023-05-05T09:30:48.204Z,53.15
2023-05-05T09:34:59.067Z,54.10
2023-05-05T09:39:06.312Z,53.73
2023-05-05T09:43:11.091Z,52.78
2023-05-05T09:47:25.901Z,52.70
2023-05-05T09:51:32.058Z,52.95
2023-05-05T09:55:36.094Z,53.20
2023-05-05T09:59:40.672Z,52.80
2023-05-05T10:03:51.438Z,52.17
2023-05-05T10:07:54.409Z,52.60
2023-05-05T10:11:59.079Z,52.20
2023-05-05T10:16:05.742Z,53.00
2023-05-05T10:20:11.380Z,52.30
2023-05-05T10:24:19.366Z,51.13
2023-05-05T10:28:29.577Z,53.45
2023-05-05T10:36:46.181Z,52.55
2023-05-05T10:40:49.655Z,53.70
2023-05-05T10:44:53.514Z,53.87
2023-05-05T10:49:05.970Z,53.60
2023-05-05T10:53:17.191Z,54.27
2023-05-05T10:57:24.907Z,53.95
2023-05-05T11:01:33.704Z,53.55
2023-05-05T11:05:58.295Z,52.83
2023-05-05T11:10:02.593Z,53.20
2023-05-05T11:14:22.483Z,53.58
2023-05-05T12:20:16.399Z,54.70
2023-05-05T12:24:19.989Z,55.22
2023-05-05T12:28:23.159Z,54.90
2023-05-05T12:32:28.930Z,54.13
2023-05-05T12:36:33.017Z,55.20
2023-05-05T12:40:47.094Z,53.72
2023-05-05T12:44:50.735Z,55.50
2023-05-05T12:49:07.313Z,55.00
2023-05-05T12:53:10.345Z,54.95
2023-05-05T12:57:13.385Z,55.03
2023-05-05T13:01:17.498Z,55.00
2023-05-05T13:05:32.753Z,56.10
2023-05-05T13:09:35.809Z,55.35
2023-05-05T13:13:38.865Z,56.05
2023-05-05T13:17:43.051Z,55.57
2023-05-05T13:21:47.542Z,55.45
2023-05-05T13:25:51.075Z,55.50
2023-05-05T13:29:54.074Z,55.47
2023-05-05T13:33:59.315Z,54.67
2023-05-05T13:38:03.976Z,55.55
2023-05-05T13:42:07.087Z,55.20
2023-05-05T13:46:19.724Z,53.90
2023-05-05T13:50:23.962Z,55.17
2023-05-05T13:54:28.342Z,54.85
2023-05-05T13:58:31.335Z,55.00
2023-05-05T14:02:34.376Z,54.07
2023-05-05T14:06:37.411Z,54.97
2023-05-05T14:10:43.822Z,54.20
2023-05-05T14:14:49.402Z,55.50
2023-05-05T14:18:52.425Z,55.00
2023-05-05T14:22:56.513Z,55.42
2023-05-05T14:27:02.324Z,54.80
2023-05-05T14:31:05.564Z,54.73
2023-05-05T14:35:09.143Z,54.30
2023-05-05T14:39:12.260Z,54.40
2023-05-05T14:43:16.717Z,55.00
2023-05-05T14:47:19.985Z,54.60
2023-05-05T14:51:23.013Z,54.70
2023-05-05T14:55:26.470Z,54.75
2023-05-05T15:03:33.984Z,55.30
2023-05-05T15:07:37.147Z,55.47
2023-05-05T15:11:41.270Z,54.33
2023-05-05T15:15:46.196Z,53.83
2023-05-05T15:23:52.026Z,55.20
2023-05-05T15:27:55.026Z,54.35
2023-05-05T15:31:59.406Z,53.90
2023-05-05T15:36:02.408Z,54.30
2023-05-05T15:40:06.471Z,54.40
2023-05-05T15:44:12.332Z,53.40
2023-05-05T15:48:16.643Z,54.30
2023-05-05T15:52:19.701Z,54.30
2023-05-05T15:56:22.715Z,54.15
2023-05-05T16:00:25.903Z,53.97
2023-05-05T16:04:30.425Z,54.00
2023-05-05T16:08:33.421Z,54.35
2023-05-05T16:12:36.482Z,53.40
2023-05-05T16:16:39.520Z,53.47
2023-05-05T16:20:43.854Z,53.75
2023-05-05T16:24:46.999Z,53.60
2023-05-05T16:28:49.948Z,53.05
2023-05-05T16:32:54.526Z,53.40
2023-05-05T16:37:00.158Z,52.65
2023-05-05T16:41:03.214Z,53.53
2023-05-05T16:45:08.906Z,53.70
2023-05-05T16:49:12.109Z,53.70
2023-05-05T16:53:16.470Z,53.75
2023-05-05T17:01:36.175Z,53.35
2023-05-05T17:05:39.348Z,53.35
2023-05-05T17:09:43.702Z,53.17
2023-05-05T17:13:46.677Z,53.50
2023-05-05T17:17:49.751Z,53.57
2023-05-05T17:21:52.766Z,52.57
2023-05-05T17:25:58.762Z,53.67
2023-05-05T17:30:01.756Z,55.20
2023-05-05T17:34:04.771Z,54.28
2023-05-05T17:38:07.867Z,54.25
2023-05-05T17:42:12.339Z,53.95
2023-05-05T17:46:15.380Z,53.35
2023-05-05T17:50:18.547Z,53.65
2023-05-05T17:54:21.538Z,53.55
2023-05-05T17:58:26.113Z,53.63
2023-05-05T18:02:29.241Z,53.60
2023-05-05T18:06:32.276Z,53.10
2023-05-05T18:10:35.286Z,53.00
2023-05-05T18:14:39.779Z,53.20
2023-05-05T18:18:43.448Z,52.80
2023-05-05T18:22:46.694Z,53.72
2023-05-05T18:26:51.173Z,53.50
2023-05-05T18:30:55.763Z,53.58
2023-05-05T18:34:59.750Z,53.80
2023-05-05T18:39:02.805Z,53.30
2023-05-05T18:43:05.812Z,53.73
2023-05-05T18:47:10.322Z,53.95
2023-05-05T18:51:13.362Z,53.63
2023-05-05T18:55:18.439Z,53.80
2023-05-05T18:59:21.796Z,53.20
2023-05-05T19:03:26.198Z,53.60
2023-05-05T19:07:35.576Z,53.70
2023-05-05T19:11:41.817Z,53.60
2023-05-05T19:15:44.901Z,53.90
2023-05-05T19:19:49.275Z,52.70
2023-05-05T19:23:52.272Z,52.30
2023-05-05T19:27:55.326Z,53.30
2023-05-05T19:31:58.398Z,53.77
2023-05-05T19:36:03.545Z,53.10
2023-05-05T19:40:08.312Z,53.10
2023-05-05T19:44:11.711Z,54.00
2023-05-05T19:48:16.826Z,53.40
2023-05-05T19:52:23.595Z,53.93
2023-05-05T19:56:26.606Z,53.35
2023-05-05T20:00:29.852Z,53.60
2023-05-05T20:04:32.831Z,53.10
2023-05-05T20:08:37.171Z,53.65
2023-05-05T20:12:42.424Z,53.20
2023-05-05T20:16:47.978Z,53.80
2023-05-05T20:20:51.299Z,53.70
2023-05-05T20:24:55.868Z,53.20
2023-05-05T20:28:59.233Z,54.80
2023-05-05T20:33:02.234Z,54.10
2023-05-05T20:37:05.381Z,53.50
2023-05-05T20:41:09.718Z,53.30
2023-05-05T20:45:13.504Z,53.25
2023-05-05T20:49:16.550Z,53.00
2023-05-05T20:53:20.983Z,53.40
2023-05-05T20:57:26.031Z,53.90
2023-05-05T21:01:29.506Z,54.90
2023-05-05T21:05:32.663Z,53.65
2023-05-05T21:13:41.046Z,54.40
2023-05-05T21:33:56.751Z,54.35
2023-05-05T21:37:59.744Z,54.10
2023-05-05T21:42:02.723Z,53.70
2023-05-05T21:46:07.207Z,54.10
2023-05-05T21:50:11.421Z,53.97
2023-05-05T21:54:14.677Z,53.80
2023-05-05T21:58:17.674Z,54.23
2023-05-05T22:06:24.999Z,53.90
2023-05-05T22:10:28.183Z,53.13
2023-05-05T22:14:31.256Z,54.13
2023-05-05T22:18:36.498Z,54.23
2023-05-05T22:22:39.496Z,54.10
